createdAt,value
2022-10-07T00:04:11.224Z,4.0455
2022-10-07T00:14:34.884Z,4.0455
2022-10-07T00:19:46.739Z,4.0504
2022-10-07T00:24:58.824Z,4.0455
2022-10-07T00:30:10.853Z,4.0455
2022-10-07T00:40:34.839Z,4.0406
2022-10-07T00:45:46.966Z,4.0406
2022-10-07T00:50:58.783Z,4.0406
2022-10-07T00:56:10.818Z,4.0406
2022-10-07T01:11:46.717Z,4.0406
2022-10-07T01:16:58.977Z,4.0406
2022-10-07T01:22:10.784Z,4.0406
2022-10-07T01:32:34.564Z,4.0406
2022-10-07T01:37:48.588Z,4.0309
2022-10-07T01:42:59.903Z,4.0309
2022-10-07T01:48:11.624Z,4.0309
2022-10-07T01:58:35.479Z,4.0309
2022-10-07T02:03:48.181Z,4.0406
2022-10-07T02:08:59.925Z,4.0309
2022-10-07T02:14:12.107Z,4.0309
2022-10-07T02:24:35.593Z,4.0309
2022-10-07T02:29:47.419Z,4.0309
2022-10-07T02:34:59.395Z,4.0309
2022-10-07T02:40:13.595Z,4.0309
2022-10-07T02:50:38.826Z,4.026
2022-10-07T02:55:50.705Z,4.026
2022-10-07T03:01:02.790Z,4.026
2022-10-07T03:06:14.506Z,4.026
2022-10-07T03:11:26.236Z,4.026
2022-10-07T03:16:38.403Z,4.026
2022-10-07T03:21:50.009Z,4.026
2022-10-07T03:27:01.965Z,4.026
2022-10-07T03:32:14.220Z,4.026
2022-10-07T03:37:26.015Z,4.026
2022-10-07T03:42:37.786Z,4.026
2022-10-07T03:47:50.713Z,4.0211
2022-10-07T03:53:02.088Z,4.026
2022-10-07T03:58:13.957Z,4.026
2022-10-07T04:03:26.412Z,4.026
2022-10-07T04:08:38.217Z,4.0211
2022-10-07T04:13:50.197Z,4.0211
2022-10-07T04:19:02.862Z,4.0211
2022-10-07T04:24:14.757Z,4.0211
2022-10-07T04:29:26.729Z,4.0211
2022-10-07T04:34:38.703Z,4.0211
2022-10-07T04:40:02.277Z,4.0211
2022-10-07T04:45:13.917Z,4.0162
2022-10-07T04:50:25.722Z,4.026
2022-10-07T04:55:37.547Z,4.0162
2022-10-07T05:00:49.863Z,4.0162
2022-10-07T05:06:07.060Z,4.0162
2022-10-07T05:16:33.910Z,4.0114
2022-10-07T05:21:45.835Z,4.0162
2022-10-07T05:26:57.537Z,4.0162
2022-10-07T05:32:09.763Z,4.0162
2022-10-07T05:42:33.707Z,4.0162
2022-10-07T05:47:47.842Z,4.0162
2022-10-07T05:52:59.713Z,4.0162
2022-10-07T05:58:11.608Z,4.0162
2022-10-07T06:08:35.901Z,4.0114
2022-10-07T06:13:47.729Z,4.0114
2022-10-07T06:18:59.862Z,4.0065
2022-10-07T06:24:11.831Z,4.0065
2022-10-07T06:34:35.612Z,4.0114
2022-10-07T06:39:47.813Z,4.0211
2022-10-07T06:45:00.078Z,4.0114
2022-10-07T06:50:12.198Z,4.0114
2022-10-07T07:00:36.027Z,4.0114
2022-10-07T07:05:55.529Z,4.0114
2022-10-07T07:11:05.922Z,4.0114
2022-10-07T07:21:30.107Z,4.0114
2022-10-07T07:26:42.361Z,4.0114
2022-10-07T07:31:54.409Z,4.0114
2022-10-07T07:37:06.688Z,4.0114
2022-10-07T07:47:31.390Z,4.0114
2022-10-07T07:52:43.560Z,4.0114
2022-10-07T07:57:56.008Z,4.0114
2022-10-07T08:03:08.143Z,4.0114
2022-10-07T08:08:23.059Z,4.0114
2022-10-07T08:13:35.013Z,4.0114
2022-10-07T08:18:47.625Z,4.0114
2022-10-07T08:23:59.945Z,4.0114
2022-10-07T08:29:12.455Z,4.0114
2022-10-07T08:39:37.021Z,4.0114
2022-10-07T08:44:49.811Z,4.0114
2022-10-07T08:50:02.021Z,4.0114
2022-10-07T08:55:14.442Z,4.0114
2022-10-07T09:05:39.511Z,4.0114
2022-10-07T09:10:51.930Z,4.0162
2022-10-07T09:16:04.938Z,4.0114
2022-10-07T09:26:29.631Z,4.0114
2022-10-07T09:31:42.363Z,4.0114
2022-10-07T09:36:54.642Z,4.0114
2022-10-07T09:42:07.052Z,4.0114
2022-10-07T09:52:32.110Z,4.0114
2022-10-07T09:57:46.318Z,4.0114
2022-10-07T10:03:07.384Z,4.0114
2022-10-07T10:13:30.721Z,4.0114
2022-10-07T10:18:43.294Z,4.0114
2022-10-07T10:23:55.691Z,4.0114
2022-10-07T10:29:08.201Z,4.0114
2022-10-07T10:39:33.231Z,4.0162
2022-10-07T10:44:45.760Z,4.0114
2022-10-07T10:49:58.498Z,4.0114
2022-10-07T10:55:11.012Z,4.0114
2022-10-07T11:05:36.141Z,4.0162
2022-10-07T11:10:49.271Z,4.0211
2022-10-07T11:16:04.825Z,4.1138
2022-10-07T11:26:36.141Z,4.1334
2022-10-07T11:31:49.397Z,4.1334
2022-10-07T11:42:14.077Z,4.1626
2022-10-07T11:47:27.138Z,4.1724
2022-10-07T11:52:40.374Z,4.1919
2022-10-07T12:08:14.714Z,4.109
2022-10-07T12:18:38.677Z,4.1431
2022-10-07T12:23:51.581Z,4.1334
2022-10-07T12:44:38.847Z,4.1138
2022-10-07T12:49:51.897Z,4.1236
2022-10-07T12:55:05.301Z,4.1138
2022-10-07T13:05:28.732Z,4.1675
2022-10-07T13:15:51.942Z,4.1724
2022-10-07T13:21:04.398Z,4.1578
2022-10-07T13:41:48.310Z,4.148
2022-10-07T13:52:10.000Z,4.1431
2022-10-07T14:43:58.274Z,4.1431
2022-10-07T14:49:10.642Z,4.1431
2022-10-07T14:59:35.362Z,4.1578
2022-10-07T15:04:48.700Z,4.1578
2022-10-07T15:10:00.682Z,4.1578
2022-10-07T15:25:36.022Z,4.1626
2022-10-07T15:30:48.895Z,4.1626
2022-10-07T15:36:01.362Z,4.1675
2022-10-07T15:51:36.525Z,4.1626
2022-10-07T15:56:48.744Z,4.1626
2022-10-07T16:07:11.298Z,4.1626
2022-10-07T16:53:45.761Z,4.1334
2022-10-07T17:04:08.406Z,4.1285
2022-10-07T17:19:45.405Z,4.1187
2022-10-07T17:24:57.647Z,4.1187
2022-10-07T17:30:09.655Z,4.1187
2022-10-07T17:40:34.221Z,4.1138
2022-10-07T17:45:46.125Z,4.109
2022-10-07T17:50:58.244Z,4.109
2022-10-07T17:56:10.579Z,4.109
2022-10-07T18:06:35.064Z,4.1041
2022-10-07T18:11:47.260Z,4.1041
2022-10-07T18:16:59.323Z,4.1041
2022-10-07T18:22:11.382Z,4.109
2022-10-07T18:37:49.523Z,4.0992
2022-10-07T18:43:01.396Z,4.0894
2022-10-07T18:48:13.212Z,4.0992
2022-10-07T18:58:37.576Z,4.0894
2022-10-07T19:03:49.592Z,4.0894
2022-10-07T19:09:01.550Z,4.0846
2022-10-07T19:14:13.707Z,4.0846
2022-10-07T19:19:25.794Z,4.0846
2022-10-07T19:24:37.992Z,4.0846
2022-10-07T19:29:50.160Z,4.0797
2022-10-07T19:35:02.154Z,4.0797
2022-10-07T19:40:14.453Z,4.0894
2022-10-07T19:45:27.232Z,4.0797
2022-10-07T19:50:39.337Z,4.0797
2022-10-07T19:55:51.457Z,4.0748
2022-10-07T20:01:04.287Z,4.0748
2022-10-07T20:11:28.567Z,4.0748
2022-10-07T20:16:41.347Z,4.0748
2022-10-07T20:21:53.456Z,4.0748
2022-10-07T20:27:05.666Z,4.0699
2022-10-07T20:32:18.409Z,4.0699
2022-10-07T20:37:30.337Z,4.0699
2022-10-07T20:42:49.722Z,4.0699
2022-10-07T20:48:06.312Z,4.0699
2022-10-07T20:58:30.176Z,4.0699
2022-10-07T21:03:42.382Z,4.065
2022-10-07T21:08:54.557Z,4.065
2022-10-07T21:14:06.587Z,4.0602
2022-10-07T21:24:30.937Z,4.065
2022-10-07T21:29:49.649Z,4.0602
2022-10-07T21:35:01.202Z,4.0602
2022-10-07T21:50:40.011Z,4.0602
2022-10-07T21:55:51.906Z,4.0602
2022-10-07T22:01:04.444Z,4.0553
2022-10-07T22:06:16.531Z,4.0553
2022-10-07T22:11:28.556Z,4.0553
2022-10-07T22:16:40.602Z,4.0553
2022-10-07T22:21:52.759Z,4.0553
2022-10-07T22:27:04.886Z,4.0553
2022-10-07T22:37:29.204Z,4.0553
2022-10-07T22:42:41.386Z,4.0553
2022-10-07T22:47:53.315Z,4.0553
2022-10-07T22:53:05.508Z,4.0504
2022-10-07T23:03:30.216Z,4.0504
2022-10-07T23:08:41.880Z,4.0504
2022-10-07T23:13:53.884Z,4.0504
2022-10-07T23:19:05.885Z,4.0504
2022-10-07T23:29:29.997Z,4.0553
2022-10-07T23:34:42.205Z,4.0504
2022-10-07T23:39:54.618Z,4.0504
2022-10-07T23:45:06.556Z,4.0504
2022-10-07T23:55:31.066Z,4.0504
